Time;durP1;ratioP1;P1;durP2;ratioP2;P2;SDS_P1;SDS_P2;PMS_P1;PMS_P2;Temp;Humidity;BMP_temperature;BMP_pressure;BME280_temperature;BME280_humidity;BME280_pressure;Samples;Min_cycle;Max_cycle;Signal;HPM_P1;HPM_P2
2023/11/28 00:01:59;;;;;;;2.90;2.70;;;2.80;99.90;;;;;;494025;241;27553;-72
2023/11/28 00:04:00;;;;;;;3.35;3.05;;;2.80;99.90;;;;;;493943;241;27540;-72
2023/11/28 00:06:01;;;;;;;3.10;2.90;;;2.80;99.90;;;;;;493958;241;28685;-72
2023/11/28 00:08:03;;;;;;;3.83;3.05;;;2.80;99.90;;;;;;493980;241;28049;-72
2023/11/28 00:10:08;;;;;;;2.80;2.60;;;2.80;99.90;;;;;;493842;241;29153;-72
2023/11/28 00:12:08;;;;;;;2.65;2.45;;;2.80;99.90;;;;;;493921;241;27543;-72
2023/11/28 00:14:09;;;;;;;3.25;2.95;;;2.90;99.90;;;;;;493991;241;27506;-71
2023/11/28 00:16:10;;;;;;;5.20;3.80;;;2.90;99.90;;;;;;493957;241;27540;-72
2023/11/28 00:18:11;;;;;;;3.20;2.90;;;2.90;99.90;;;;;;494001;241;27521;-73
2023/11/28 00:20:13;;;;;;;2.67;2.47;;;2.90;99.90;;;;;;493967;241;27464;-72
2023/11/28 00:22:14;;;;;;;2.15;2.05;;;2.90;99.90;;;;;;493951;241;27505;-72
2023/11/28 00:24:15;;;;;;;3.30;3.00;;;2.90;99.90;;;;;;493948;241;27465;-72
2023/11/28 00:26:16;;;;;;;3.25;2.95;;;2.90;99.90;;;;;;494009;241;27492;-71
2023/11/28 00:28:18;;;;;;;2.92;2.72;;;3.00;99.90;;;;;;493975;237;27505;-72
2023/11/28 00:30:20;;;;;;;2.67;2.47;;;3.00;99.90;;;;;;493962;241;27537;-71
2023/11/28 00:32:20;;;;;;;2.58;2.37;;;3.00;99.90;;;;;;494014;241;27571;-71
2023/11/28 00:34:21;;;;;;;3.40;3.00;;;3.00;99.90;;;;;;494035;241;28047;-72
2023/11/28 00:36:23;;;;;;;3.40;3.00;;;3.00;99.90;;;;;;493995;241;28009;-73
2023/11/28 00:38:24;;;;;;;2.33;2.20;;;3.10;99.90;;;;;;494028;241;29072;-72
2023/11/28 00:40:28;;;;;;;1.70;1.60;;;3.00;99.90;;;;;;494005;241;27933;-72
2023/11/28 00:42:27;;;;;;;2.37;2.25;;;3.10;99.90;;;;;;493709;241;27508;-72
2023/11/28 00:44:30;;;;;;;2.28;2.08;;;3.10;99.90;;;;;;494077;241;27557;-73
2023/11/28 00:46:29;;;;;;;2.00;1.90;;;3.10;99.90;;;;;;493863;241;27489;-71
2023/11/28 00:48:30;;;;;;;1.87;1.77;;;3.10;99.90;;;;;;493896;241;27582;-72
2023/11/28 00:50:33;;;;;;;1.60;1.50;;;3.10;99.90;;;;;;493925;241;27506;-72
2023/11/28 00:52:34;;;;;;;1.40;1.30;;;3.10;99.90;;;;;;493946;241;27529;-74
2023/11/28 00:54:36;;;;;;;1.23;1.23;;;3.00;99.90;;;;;;493978;241;27470;-72
2023/11/28 00:56:36;;;;;;;1.65;1.55;;;3.00;99.90;;;;;;493898;241;27517;-74
2023/11/28 00:58:38;;;;;;;1.23;1.23;;;3.00;99.90;;;;;;493975;241;27543;-72
2023/11/28 01:00:39;;;;;;;1.50;1.40;;;3.00;99.90;;;;;;493887;241;27497;-72
2023/11/28 01:02:40;;;;;;;1.45;1.35;;;3.00;99.90;;;;;;494123;241;27505;-73
2023/11/28 01:04:41;;;;;;;1.00;1.00;;;3.00;99.90;;;;;;494034;241;27552;-72
2023/11/28 01:06:43;;;;;;;1.55;1.45;;;3.00;99.90;;;;;;494018;241;27958;-72
2023/11/28 01:08:44;;;;;;;1.65;1.33;;;3.10;99.90;;;;;;494035;241;28056;-71
2023/11/28 01:10:45;;;;;;;1.30;1.20;;;3.10;99.90;;;;;;494067;241;27951;-72
2023/11/28 01:12:46;;;;;;;1.12;1.12;;;3.10;99.90;;;;;;494017;241;28052;-72
2023/11/28 01:14:48;;;;;;;1.30;1.30;;;3.10;99.90;;;;;;494082;241;27480;-71
2023/11/28 01:16:49;;;;;;;1.17;1.17;;;3.10;99.90;;;;;;494043;241;27528;-72
2023/11/28 01:18:50;;;;;;;1.50;1.40;;;3.10;99.90;;;;;;494090;241;27594;-72
2023/11/28 01:20:51;;;;;;;1.10;1.10;;;3.20;99.90;;;;;;494050;241;27596;-72
2023/11/28 01:22:53;;;;;;;1.40;1.30;;;3.20;99.90;;;;;;494075;241;27496;-73
2023/11/28 01:24:54;;;;;;;1.17;1.15;;;3.20;99.90;;;;;;494060;241;27482;-72
2023/11/28 01:26:55;;;;;;;1.40;1.30;;;3.20;99.90;;;;;;494052;241;27597;-72
2023/11/28 01:28:56;;;;;;;1.30;1.20;;;3.30;99.90;;;;;;494059;241;28078;-73
2023/11/28 01:30:58;;;;;;;1.42;1.33;;;3.30;99.90;;;;;;493880;241;28000;-72
2023/11/28 01:32:59;;;;;;;1.40;1.40;;;3.30;99.90;;;;;;493959;241;27976;-71
2023/11/28 01:35:00;;;;;;;1.20;1.10;;;3.40;99.90;;;;;;493947;241;27984;-71
2023/11/28 01:37:01;;;;;;;1.30;1.30;;;3.40;99.90;;;;;;494063;241;27510;-72
2023/11/28 01:39:03;;;;;;;1.15;1.15;;;3.40;99.90;;;;;;494081;241;27588;-74
2023/11/28 01:41:04;;;;;;;2.35;1.40;;;3.40;99.90;;;;;;494101;241;27496;-72
2023/11/28 01:43:05;;;;;;;1.15;1.15;;;3.40;99.90;;;;;;494074;241;27517;-72
2023/11/28 01:45:06;;;;;;;1.30;1.30;;;3.40;99.90;;;;;;494004;241;27476;-71
2023/11/28 01:47:08;;;;;;;1.70;1.60;;;3.40;99.90;;;;;;494014;241;27520;-72
2023/11/28 01:49:09;;;;;;;1.40;1.30;;;3.40;99.90;;;;;;494021;241;27518;-72
2023/11/28 01:51:10;;;;;;;1.45;1.45;;;3.40;99.90;;;;;;494028;241;27465;-71
2023/11/28 01:53:11;;;;;;;1.48;1.35;;;3.40;99.90;;;;;;494093;241;27601;-72
2023/11/28 01:55:13;;;;;;;1.77;1.67;;;3.50;99.90;;;;;;494001;241;27542;-72
2023/11/28 01:57:14;;;;;;;1.75;1.65;;;3.40;99.90;;;;;;494031;241;28013;-72
2023/11/28 01:59:15;;;;;;;1.25;1.20;;;3.40;99.90;;;;;;494018;241;27995;-73
2023/11/28 02:01:16;;;;;;;1.40;1.30;;;3.50;99.90;;;;;;494115;241;28026;-72
2023/11/28 02:03:18;;;;;;;1.20;1.20;;;3.50;99.90;;;;;;494071;241;29095;-72
2023/11/28 02:05:19;;;;;;;1.17;1.17;;;3.40;99.90;;;;;;494046;241;27608;-73
2023/11/28 02:07:21;;;;;;;1.98;1.20;;;3.50;99.90;;;;;;494143;241;27474;-72
2023/11/28 02:09:21;;;;;;;1.40;1.30;;;3.50;99.90;;;;;;493978;241;27529;-72
2023/11/28 02:11:23;;;;;;;1.73;1.62;;;3.50;99.90;;;;;;494006;241;27526;-72
2023/11/28 02:13:24;;;;;;;1.30;1.30;;;3.50;99.90;;;;;;493981;241;27576;-72
2023/11/28 02:15:25;;;;;;;1.60;1.50;;;3.50;99.90;;;;;;494098;241;27564;-74
2023/11/28 02:17:26;;;;;;;1.30;1.30;;;3.60;99.90;;;;;;494097;241;27478;-72
2023/11/28 02:19:28;;;;;;;1.45;1.35;;;3.50;99.90;;;;;;494066;241;27512;-72
2023/11/28 02:21:29;;;;;;;1.77;1.25;;;3.50;99.90;;;;;;493995;241;27478;-73
2023/11/28 02:23:30;;;;;;;1.23;1.23;;;3.50;99.90;;;;;;494001;241;27535;-72
2023/11/28 02:25:31;;;;;;;1.50;1.37;;;3.60;99.90;;;;;;494073;241;28012;-73
2023/11/28 02:27:33;;;;;;;1.40;1.30;;;3.50;99.90;;;;;;494095;241;28054;-72
2023/11/28 02:29:34;;;;;;;1.48;1.37;;;3.60;99.90;;;;;;493974;241;27987;-72
2023/11/28 02:31:36;;;;;;;1.20;1.20;;;3.60;99.90;;;;;;494000;241;28006;-71
2023/11/28 02:33:36;;;;;;;1.33;1.20;;;3.60;99.90;;;;;;493988;241;27496;-72
2023/11/28 02:35:38;;;;;;;1.30;1.30;;;3.60;99.90;;;;;;494076;241;27541;-72
2023/11/28 02:37:39;;;;;;;1.10;1.10;;;3.60;99.90;;;;;;494043;241;27551;-72
2023/11/28 02:39:40;;;;;;;1.50;1.40;;;3.60;99.90;;;;;;493979;241;27525;-72
2023/11/28 02:41:41;;;;;;;2.45;1.67;;;3.60;99.90;;;;;;494018;241;27525;-74
2023/11/28 02:43:43;;;;;;;1.90;1.80;;;3.70;99.90;;;;;;494069;241;27548;-72
2023/11/28 02:45:48;;;;;;;1.35;1.30;;;3.70;99.90;;;;;;493968;241;27510;-72
2023/11/28 02:47:45;;;;;;;1.95;1.85;;;3.70;99.90;;;;;;493756;241;27457;-71
2023/11/28 02:49:46;;;;;;;1.80;1.70;;;3.70;99.90;;;;;;494032;241;27499;-72
2023/11/28 02:51:48;;;;;;;1.70;1.60;;;3.70;99.90;;;;;;494064;241;27533;-73
2023/11/28 02:53:50;;;;;;;1.95;1.80;;;3.70;99.90;;;;;;493976;241;27934;-71
2023/11/28 02:55:51;;;;;;;2.40;2.20;;;3.70;99.90;;;;;;493973;237;27980;-72
2023/11/28 02:57:51;;;;;;;3.03;2.17;;;3.70;99.90;;;;;;494042;241;29110;-72
2023/11/28 02:59:53;;;;;;;2.30;2.20;;;3.70;99.90;;;;;;494066;241;27933;-72
2023/11/28 03:01:54;;;;;;;2.20;2.00;;;3.70;99.90;;;;;;494085;241;27505;-74
2023/11/28 03:03:55;;;;;;;2.15;2.05;;;3.70;99.90;;;;;;493991;241;27486;-71
2023/11/28 03:05:56;;;;;;;2.00;1.90;;;3.70;99.90;;;;;;493952;241;27518;-72
2023/11/28 03:07:58;;;;;;;2.10;2.00;;;3.70;99.90;;;;;;493972;241;27476;-72
2023/11/28 03:09:59;;;;;;;2.78;2.53;;;3.70;99.90;;;;;;494005;241;27558;-72
2023/11/28 03:12:00;;;;;;;2.47;2.35;;;3.70;99.90;;;;;;493934;241;27506;-72
2023/11/28 03:14:02;;;;;;;2.90;2.42;;;3.60;99.90;;;;;;494064;241;27520;-72
2023/11/28 03:16:03;;;;;;;3.40;2.72;;;3.60;99.90;;;;;;493972;241;27589;-72
2023/11/28 03:18:08;;;;;;;2.53;2.33;;;3.70;99.90;;;;;;493978;241;27556;-72
2023/11/28 03:20:05;;;;;;;2.42;2.25;;;3.70;99.90;;;;;;493619;241;27542;-71
2023/11/28 03:22:06;;;;;;;3.05;2.85;;;3.60;99.90;;;;;;493985;241;27985;-72
2023/11/28 03:24:08;;;;;;;2.90;2.70;;;3.60;99.90;;;;;;493994;241;27905;-72
2023/11/28 03:26:09;;;;;;;2.70;2.50;;;3.60;99.90;;;;;;493977;241;28030;-72
2023/11/28 03:28:10;;;;;;;2.75;2.53;;;3.60;99.90;;;;;;494011;241;27989;-72
2023/11/28 03:30:11;;;;;;;3.10;2.65;;;3.50;99.90;;;;;;493977;241;27586;-72
2023/11/28 03:32:13;;;;;;;3.05;2.75;;;3.50;99.90;;;;;;493978;241;27474;-73
2023/11/28 03:34:14;;;;;;;2.80;2.45;;;3.50;99.90;;;;;;493968;241;27502;-71
2023/11/28 03:36:15;;;;;;;2.78;2.58;;;3.50;99.90;;;;;;493998;241;27473;-72
2023/11/28 03:38:16;;;;;;;2.75;2.55;;;3.50;99.90;;;;;;494000;241;27523;-73
2023/11/28 03:40:18;;;;;;;2.50;2.30;;;3.40;99.90;;;;;;494003;241;27541;-72
2023/11/28 03:42:19;;;;;;;3.30;3.00;;;3.40;99.90;;;;;;493955;241;27509;-72
2023/11/28 03:44:20;;;;;;;2.60;2.40;;;3.40;99.90;;;;;;493988;241;28151;-74
2023/11/28 03:46:21;;;;;;;2.72;2.53;;;3.30;99.90;;;;;;494075;241;28067;-72
2023/11/28 03:48:23;;;;;;;2.55;2.33;;;3.30;99.90;;;;;;494054;241;27983;-75
2023/11/28 03:50:24;;;;;;;2.28;2.15;;;3.30;99.90;;;;;;493948;241;29134;-73
2023/11/28 03:52:25;;;;;;;2.70;2.50;;;3.30;99.90;;;;;;493992;241;27596;-73
2023/11/28 03:54:26;;;;;;;2.78;2.58;;;3.30;99.90;;;;;;494076;241;27598;-72
2023/11/28 03:56:28;;;;;;;2.80;2.60;;;3.30;99.90;;;;;;494001;241;27602;-72
2023/11/28 03:58:29;;;;;;;2.70;2.50;;;3.20;99.90;;;;;;493986;241;27588;-72
2023/11/28 04:00:30;;;;;;;2.72;2.53;;;3.20;99.90;;;;;;493956;241;27463;-72
2023/11/28 04:02:31;;;;;;;2.80;2.60;;;3.20;99.90;;;;;;493965;241;27615;-72
2023/11/28 04:04:33;;;;;;;2.47;2.33;;;3.20;99.90;;;;;;494089;241;27522;-72
2023/11/28 04:06:34;;;;;;;2.65;2.45;;;3.20;99.90;;;;;;494041;241;27488;-72
2023/11/28 04:08:35;;;;;;;2.37;2.22;;;3.20;99.90;;;;;;494043;241;27517;-72
2023/11/28 04:10:36;;;;;;;1.95;1.85;;;3.10;99.90;;;;;;494052;241;27596;-72
2023/11/28 04:12:38;;;;;;;2.50;2.30;;;3.10;99.90;;;;;;493925;241;27937;-72
2023/11/28 04:14:39;;;;;;;1.65;1.55;;;3.10;99.90;;;;;;494001;241;28051;-72
2023/11/28 04:16:40;;;;;;;2.60;2.40;;;3.00;99.90;;;;;;493981;241;27930;-71
2023/11/28 04:18:41;;;;;;;2.10;2.00;;;3.00;99.90;;;;;;493968;241;28092;-72
2023/11/28 04:20:43;;;;;;;2.05;1.95;;;3.00;99.90;;;;;;494091;241;27620;-73
2023/11/28 04:22:44;;;;;;;2.28;2.17;;;2.90;99.90;;;;;;494105;241;27477;-72
2023/11/28 04:24:45;;;;;;;1.80;1.70;;;2.90;99.90;;;;;;494077;241;27512;-72
2023/11/28 04:26:46;;;;;;;1.80;1.70;;;2.90;99.90;;;;;;494076;241;27478;-72
2023/11/28 04:28:48;;;;;;;1.65;1.55;;;2.80;99.90;;;;;;494071;237;27507;-71
2023/11/28 04:30:49;;;;;;;1.62;1.52;;;2.80;99.90;;;;;;494058;241;27524;-72
2023/11/28 04:32:50;;;;;;;1.60;1.50;;;2.80;99.90;;;;;;494038;241;27489;-71
2023/11/28 04:34:51;;;;;;;1.30;1.30;;;2.70;99.90;;;;;;493925;241;27526;-72
2023/11/28 04:36:53;;;;;;;2.00;1.40;;;2.70;99.90;;;;;;493910;241;27464;-71
2023/11/28 04:38:54;;;;;;;1.50;1.50;;;2.70;99.90;;;;;;493953;241;27509;-72
2023/11/28 04:40:55;;;;;;;1.23;1.23;;;2.60;99.90;;;;;;493984;241;27918;-72
2023/11/28 04:42:56;;;;;;;1.60;1.60;;;2.60;99.90;;;;;;493991;241;28047;-72
2023/11/28 04:44:58;;;;;;;1.95;1.85;;;2.60;99.90;;;;;;493941;241;27989;-72
2023/11/28 04:46:59;;;;;;;1.50;1.40;;;2.60;99.90;;;;;;493936;241;28918;-72
2023/11/28 04:49:00;;;;;;;1.52;1.42;;;2.60;99.90;;;;;;494088;237;27591;-72
2023/11/28 04:51:01;;;;;;;3.53;1.30;;;2.50;99.90;;;;;;494073;239;27546;-72
2023/11/28 04:53:03;;;;;;;1.27;1.20;;;2.50;99.90;;;;;;493951;241;27464;-72
2023/11/28 04:55:04;;;;;;;1.50;1.40;;;2.50;99.90;;;;;;493907;241;27517;-71
2023/11/28 04:57:05;;;;;;;1.10;1.10;;;2.40;99.90;;;;;;493942;241;27502;-71
2023/11/28 04:59:06;;;;;;;1.05;1.05;;;2.40;99.90;;;;;;493761;241;27453;-72
2023/11/28 05:01:08;;;;;;;1.10;1.10;;;2.30;99.90;;;;;;494029;241;27631;-72
2023/11/28 05:03:09;;;;;;;1.15;1.12;;;2.20;99.90;;;;;;493955;241;27467;-71
2023/11/28 05:05:10;;;;;;;1.08;1.08;;;2.20;99.90;;;;;;493991;241;27496;-71
2023/11/28 05:07:14;;;;;;;1.27;1.17;;;2.10;99.90;;;;;;494063;241;27632;-73
2023/11/28 05:09:17;;;;;;;1.00;1.00;;;2.10;99.90;;;;;;493946;241;27481;-72
2023/11/28 05:11:14;;;;;;;1.23;1.20;;;2.10;99.90;;;;;;493703;241;27523;-72
2023/11/28 05:13:15;;;;;;;1.20;1.20;;;2.00;99.90;;;;;;493978;241;27466;-72
2023/11/28 05:15:16;;;;;;;2.12;1.92;;;2.00;99.90;;;;;;493795;239;27570;-71
2023/11/28 05:17:18;;;;;;;1.20;1.20;;;2.00;99.90;;;;;;494015;241;28040;-73
2023/11/28 05:19:19;;;;;;;1.00;1.00;;;2.00;99.90;;;;;;493983;241;27955;-72
2023/11/28 05:21:20;;;;;;;2.75;1.37;;;1.90;99.90;;;;;;493993;241;27992;-71
2023/11/28 05:23:22;;;;;;;1.10;1.10;;;1.90;99.90;;;;;;494041;241;28092;-72
2023/11/28 05:25:23;;;;;;;1.20;1.20;;;1.90;99.90;;;;;;494052;241;27627;-72
2023/11/28 05:27:24;;;;;;;1.02;1.02;;;1.80;99.90;;;;;;493975;241;27541;-71
2023/11/28 05:29:26;;;;;;;0.90;0.90;;;1.80;99.90;;;;;;493973;241;27501;-72
2023/11/28 05:31:26;;;;;;;0.98;0.98;;;1.70;99.90;;;;;;493919;241;27596;-72
2023/11/28 05:33:28;;;;;;;1.10;1.10;;;1.70;99.90;;;;;;494069;237;27538;-72
2023/11/28 05:35:29;;;;;;;1.00;1.00;;;1.60;99.90;;;;;;494091;241;27602;-71
2023/11/28 05:37:30;;;;;;;1.20;1.20;;;1.60;99.90;;;;;;494009;241;27597;-72
2023/11/28 05:39:31;;;;;;;1.00;1.00;;;1.50;99.90;;;;;;493991;241;27514;-72
2023/11/28 05:41:33;;;;;;;1.00;1.00;;;1.50;99.90;;;;;;494070;237;27501;-72
2023/11/28 05:43:34;;;;;;;1.42;1.20;;;1.50;99.90;;;;;;493999;237;27624;-72
2023/11/28 05:45:35;;;;;;;1.30;1.30;;;1.40;99.90;;;;;;493953;237;27934;-71
2023/11/28 05:47:37;;;;;;;1.00;1.00;;;1.40;99.90;;;;;;493969;241;28089;-72
2023/11/28 05:49:38;;;;;;;1.23;1.20;;;1.40;99.90;;;;;;494071;237;29807;-71
2023/11/28 05:51:39;;;;;;;1.27;1.17;;;1.30;99.90;;;;;;494104;241;28092;-71
2023/11/28 05:53:40;;;;;;;1.20;1.20;;;1.30;99.90;;;;;;494101;241;27517;-72
2023/11/28 05:55:42;;;;;;;1.30;1.30;;;1.30;99.90;;;;;;494069;241;27600;-72
2023/11/28 05:57:43;;;;;;;1.40;1.30;;;1.20;99.90;;;;;;494070;241;27571;-72
2023/11/28 05:59:44;;;;;;;1.20;1.20;;;1.20;99.90;;;;;;494057;241;27576;-73
2023/11/28 06:01:45;;;;;;;1.17;1.17;;;1.20;99.90;;;;;;494069;241;27549;-71
2023/11/28 06:03:46;;;;;;;1.20;1.20;;;1.30;99.90;;;;;;494063;241;27512;-73
2023/11/28 06:05:48;;;;;;;1.10;1.10;;;1.20;99.90;;;;;;493993;241;27576;-72
2023/11/28 06:07:50;;;;;;;1.20;1.20;;;1.20;99.90;;;;;;494069;241;27517;-72
2023/11/28 06:09:50;;;;;;;1.50;1.40;;;1.20;99.90;;;;;;494010;241;27595;-72
2023/11/28 06:11:51;;;;;;;1.10;1.10;;;1.20;99.90;;;;;;494073;241;27512;-72
2023/11/28 06:13:53;;;;;;;1.20;1.20;;;1.20;99.90;;;;;;493962;241;27990;-74
2023/11/28 06:15:54;;;;;;;1.30;1.30;;;1.10;99.90;;;;;;493987;241;27470;-71
2023/11/28 06:17:56;;;;;;;1.33;1.33;;;1.10;99.90;;;;;;493994;241;27470;-72
2023/11/28 06:19:57;;;;;;;1.60;1.50;;;1.10;99.90;;;;;;493997;241;27504;-72
2023/11/28 06:21:58;;;;;;;1.52;1.42;;;1.10;99.90;;;;;;493997;237;27457;-71
2023/11/28 06:23:59;;;;;;;1.40;1.30;;;1.10;99.90;;;;;;493990;241;27548;-72
2023/11/28 06:26:00;;;;;;;1.40;1.30;;;1.10;99.90;;;;;;494001;241;27501;-74
2023/11/28 06:28:02;;;;;;;1.48;1.37;;;1.10;99.90;;;;;;493957;241;27525;-71
2023/11/28 06:30:04;;;;;;;1.70;1.60;;;1.00;99.90;;;;;;494004;241;27501;-72
2023/11/28 06:32:04;;;;;;;1.20;1.20;;;1.00;99.90;;;;;;493869;241;27992;-72
2023/11/28 06:34:05;;;;;;;4.40;2.25;;;1.00;99.90;;;;;;494007;241;28130;-72
2023/11/28 06:36:07;;;;;;;1.20;1.20;;;1.00;99.90;;;;;;494018;241;28000;-73
2023/11/28 06:38:08;;;;;;;1.40;1.40;;;1.00;99.90;;;;;;494005;241;27479;-71
2023/11/28 06:40:09;;;;;;;1.30;1.30;;;1.00;99.90;;;;;;494027;241;27551;-72
2023/11/28 06:42:10;;;;;;;1.50;1.40;;;1.00;99.90;;;;;;494093;241;27470;-71
2023/11/28 06:44:14;;;;;;;1.70;1.60;;;1.00;99.90;;;;;;493984;241;27527;-71
2023/11/28 06:46:15;;;;;;;1.17;1.17;;;1.00;99.90;;;;;;493975;241;27974;-72
2023/11/28 06:48:17;;;;;;;1.50;1.40;;;1.00;99.90;;;;;;494002;241;27996;-72
2023/11/28 06:50:18;;;;;;;1.55;1.45;;;1.00;99.90;;;;;;493940;241;27901;-72
2023/11/28 06:52:19;;;;;;;5.62;1.42;;;1.00;99.90;;;;;;494028;241;27581;-72
2023/11/28 06:54:20;;;;;;;1.30;1.30;;;1.00;99.90;;;;;;494050;241;27510;-72
2023/11/28 06:56:22;;;;;;;1.65;1.55;;;1.00;99.90;;;;;;494006;241;27481;-72
2023/11/28 06:58:23;;;;;;;1.25;1.25;;;1.00;99.90;;;;;;494024;241;27517;-73
2023/11/28 07:00:24;;;;;;;1.70;1.60;;;1.00;99.90;;;;;;494054;241;27466;-71
2023/11/28 07:02:26;;;;;;;1.77;1.67;;;1.00;99.90;;;;;;493969;241;27612;-72
2023/11/28 07:04:27;;;;;;;1.60;1.55;;;1.00;99.90;;;;;;493991;241;27890;-73
2023/11/28 07:06:28;;;;;;;3.45;1.62;;;0.90;99.90;;;;;;493979;241;27559;-72
2023/11/28 07:08:29;;;;;;;2.10;1.60;;;1.00;99.90;;;;;;493961;241;27659;-72
2023/11/28 07:10:31;;;;;;;1.65;1.55;;;1.00;99.90;;;;;;493978;238;27473;-72
2023/11/28 07:12:32;;;;;;;1.50;1.40;;;1.00;99.90;;;;;;493964;241;28140;-72
2023/11/28 07:14:33;;;;;;;2.35;1.62;;;1.00;99.90;;;;;;493983;241;28100;-73
2023/11/28 07:16:34;;;;;;;1.40;1.40;;;0.90;99.90;;;;;;494004;241;27988;-71
2023/11/28 07:18:36;;;;;;;1.50;1.50;;;0.90;99.90;;;;;;493960;241;28030;-72
2023/11/28 07:20:37;;;;;;;1.40;1.40;;;0.90;99.90;;;;;;494017;241;27465;-71
2023/11/28 07:22:39;;;;;;;1.65;1.55;;;0.90;99.90;;;;;;494018;241;27484;-71
2023/11/28 07:24:39;;;;;;;1.80;1.70;;;0.90;99.90;;;;;;494007;241;27700;-72
2023/11/28 07:26:41;;;;;;;1.83;1.73;;;0.90;99.90;;;;;;494014;241;27638;-72
2023/11/28 07:28:42;;;;;;;1.70;1.60;;;0.90;99.90;;;;;;494085;241;27501;-72
2023/11/28 07:30:45;;;;;;;1.73;1.62;;;0.80;99.90;;;;;;494040;241;27619;-72
2023/11/28 07:32:44;;;;;;;1.67;1.58;;;0.90;99.90;;;;;;493956;241;27478;-72
2023/11/28 07:34:46;;;;;;;1.75;1.65;;;0.90;99.90;;;;;;493998;241;27584;-72
2023/11/28 07:36:47;;;;;;;1.95;1.85;;;0.90;99.90;;;;;;494010;241;27466;-72
2023/11/28 07:38:49;;;;;;;2.00;1.67;;;1.00;99.90;;;;;;493991;241;27501;-72
2023/11/28 07:40:50;;;;;;;1.95;1.85;;;0.90;99.90;;;;;;493966;241;27980;-74
2023/11/28 07:42:51;;;;;;;1.70;1.60;;;0.90;99.90;;;;;;494119;241;28007;-72
2023/11/28 07:44:52;;;;;;;1.67;1.58;;;0.90;99.90;;;;;;494082;241;28009;-72
2023/11/28 07:46:53;;;;;;;1.98;1.87;;;0.90;99.90;;;;;;494123;241;27947;-72
2023/11/28 07:48:54;;;;;;;1.50;1.50;;;0.90;99.90;;;;;;494054;241;27477;-72
2023/11/28 07:50:56;;;;;;;1.65;1.55;;;0.80;99.90;;;;;;494093;241;27589;-73
2023/11/28 07:52:57;;;;;;;2.00;1.90;;;0.80;99.90;;;;;;494045;241;27482;-72
2023/11/28 07:54:58;;;;;;;2.10;1.90;;;0.90;99.90;;;;;;493981;241;27533;-71
2023/11/28 07:56:59;;;;;;;2.20;1.90;;;0.80;99.90;;;;;;494020;241;27478;-72
2023/11/28 07:59:01;;;;;;;1.70;1.60;;;0.80;99.90;;;;;;494073;241;27465;-71
2023/11/28 08:01:02;;;;;;;2.08;1.98;;;0.80;99.90;;;;;;494066;241;27615;-73
2023/11/28 08:03:03;;;;;;;2.00;1.90;;;0.90;99.90;;;;;;493965;241;27462;-72
2023/11/28 08:05:04;;;;;;;2.30;2.10;;;0.90;99.90;;;;;;493974;241;27975;-71
2023/11/28 08:07:06;;;;;;;3.83;1.92;;;0.80;99.90;;;;;;493966;241;28470;-72
2023/11/28 08:09:08;;;;;;;2.58;2.35;;;0.80;99.90;;;;;;494003;241;28000;-72
2023/11/28 08:11:08;;;;;;;2.12;2.03;;;0.80;99.90;;;;;;493918;241;28066;-73
2023/11/28 08:13:11;;;;;;;2.45;2.25;;;0.70;99.90;;;;;;493957;241;27547;-71
2023/11/28 08:15:11;;;;;;;2.08;1.98;;;0.80;99.90;;;;;;493889;241;27506;-72
2023/11/28 08:17:12;;;;;;;2.10;2.00;;;0.70;99.90;;;;;;493950;241;27619;-72
2023/11/28 08:19:14;;;;;;;1.95;1.85;;;0.70;99.90;;;;;;494000;241;27502;-72
2023/11/28 08:21:14;;;;;;;1.95;1.85;;;0.70;99.90;;;;;;493978;241;27509;-72
2023/11/28 08:23:16;;;;;;;2.15;1.95;;;0.70;99.90;;;;;;493975;241;27476;-72
2023/11/28 08:25:17;;;;;;;2.05;1.95;;;0.70;99.90;;;;;;493821;241;27498;-72
2023/11/28 08:27:18;;;;;;;2.03;1.92;;;0.80;99.90;;;;;;493975;241;27521;-72
2023/11/28 08:29:19;;;;;;;2.05;1.95;;;0.80;99.90;;;;;;493995;241;27473;-72
2023/11/28 08:31:21;;;;;;;2.33;2.22;;;0.80;99.90;;;;;;493988;241;27505;-72
2023/11/28 08:33:22;;;;;;;2.33;2.12;;;0.80;99.90;;;;;;494017;237;28852;-72
2023/11/28 08:35:23;;;;;;;2.58;2.40;;;0.80;99.90;;;;;;494093;241;27925;-73
2023/11/28 08:37:24;;;;;;;2.45;2.25;;;0.80;99.90;;;;;;493986;241;28016;-72
2023/11/28 08:39:26;;;;;;;2.37;2.28;;;0.80;99.90;;;;;;493958;241;27923;-72
2023/11/28 08:41:27;;;;;;;2.40;2.30;;;0.70;99.90;;;;;;493957;241;27539;-72
2023/11/28 08:43:28;;;;;;;2.30;2.20;;;0.80;99.90;;;;;;493985;241;27518;-72
2023/11/28 08:45:29;;;;;;;2.55;2.45;;;0.70;99.90;;;;;;493992;241;27517;-72
2023/11/28 08:47:31;;;;;;;2.40;2.30;;;0.70;99.90;;;;;;493974;241;27521;-72
2023/11/28 08:49:32;;;;;;;2.62;2.42;;;0.80;99.90;;;;;;493968;241;27593;-72
2023/11/28 08:51:33;;;;;;;3.08;2.87;;;0.70;99.90;;;;;;493961;241;27607;-71
2023/11/28 08:53:34;;;;;;;2.50;2.40;;;0.80;99.90;;;;;;494104;241;27631;-74
2023/11/28 08:55:36;;;;;;;2.50;2.40;;;0.70;99.90;;;;;;494086;241;27477;-72
2023/11/28 08:57:37;;;;;;;2.10;2.00;;;0.80;99.90;;;;;;494097;241;27579;-72
2023/11/28 08:59:38;;;;;;;2.70;2.50;;;0.80;99.90;;;;;;494050;237;27470;-72
2023/11/28 09:01:39;;;;;;;2.20;2.10;;;0.70;99.90;;;;;;494130;241;28073;-73
2023/11/28 09:03:41;;;;;;;2.50;2.40;;;0.80;99.90;;;;;;493978;241;28066;-72
2023/11/28 09:05:42;;;;;;;2.65;2.50;;;0.70;99.90;;;;;;494120;241;28009;-72
2023/11/28 09:07:43;;;;;;;2.80;2.65;;;0.70;99.90;;;;;;494074;241;27916;-72
2023/11/28 09:09:44;;;;;;;3.28;2.97;;;0.70;99.90;;;;;;493973;241;27563;-72
2023/11/28 09:11:46;;;;;;;3.42;2.90;;;0.80;99.90;;;;;;493998;241;27505;-71
2023/11/28 09:13:47;;;;;;;3.03;2.83;;;0.80;99.90;;;;;;493988;241;27505;-72
2023/11/28 09:15:48;;;;;;;3.00;2.80;;;0.80;99.90;;;;;;494053;241;27564;-72
2023/11/28 09:17:49;;;;;;;3.50;3.22;;;0.80;99.90;;;;;;494028;237;27653;-72
2023/11/28 09:19:51;;;;;;;3.70;3.35;;;0.70;99.90;;;;;;494104;241;27876;-72
2023/11/28 09:21:52;;;;;;;2.80;2.70;;;0.70;99.90;;;;;;494010;241;27522;-72
2023/11/28 09:23:53;;;;;;;3.20;3.00;;;0.80;99.90;;;;;;493989;241;27662;-72
2023/11/28 09:25:54;;;;;;;3.00;2.80;;;0.80;99.90;;;;;;494021;241;27468;-71
2023/11/28 09:27:56;;;;;;;3.17;2.97;;;0.70;99.90;;;;;;493955;241;28036;-71
2023/11/28 09:29:57;;;;;;;3.30;3.10;;;0.70;99.90;;;;;;494017;241;27962;-74
2023/11/28 09:31:58;;;;;;;3.53;3.33;;;0.70;99.90;;;;;;494005;241;27909;-71
2023/11/28 09:33:59;;;;;;;2.83;2.72;;;0.70;99.90;;;;;;493999;241;27505;-73
2023/11/28 09:36:01;;;;;;;3.60;3.30;;;0.70;99.90;;;;;;493979;241;27465;-72
2023/11/28 09:38:02;;;;;;;3.35;3.05;;;0.70;99.90;;;;;;494080;241;27520;-72
2023/11/28 09:40:05;;;;;;;3.20;3.00;;;0.70;99.90;;;;;;494071;241;27588;-73
2023/11/28 09:42:06;;;;;;;2.97;2.78;;;0.70;99.90;;;;;;493945;241;27457;-72
2023/11/28 09:44:06;;;;;;;3.28;3.08;;;0.70;99.90;;;;;;493915;241;27525;-72
2023/11/28 09:46:07;;;;;;;3.62;3.33;;;0.70;99.90;;;;;;494005;241;27596;-72
2023/11/28 09:48:08;;;;;;;4.93;3.65;;;0.70;99.90;;;;;;494026;241;27549;-72
2023/11/28 09:50:12;;;;;;;3.42;3.22;;;0.70;99.90;;;;;;493875;241;27612;-73
2023/11/28 09:52:11;;;;;;;3.60;3.30;;;0.70;99.90;;;;;;493811;241;27449;-72
2023/11/28 09:54:12;;;;;;;3.60;3.40;;;0.70;99.90;;;;;;493993;241;27501;-72
2023/11/28 09:56:13;;;;;;;3.72;3.42;;;0.70;99.90;;;;;;494055;241;28098;-74
2023/11/28 09:58:14;;;;;;;4.30;4.00;;;0.70;99.90;;;;;;494031;241;27982;-72
2023/11/28 10:00:17;;;;;;;9.15;5.80;;;0.80;99.90;;;;;;494038;241;28077;-72
2023/11/28 10:02:17;;;;;;;7.85;5.95;;;0.70;99.90;;;;;;493987;241;27467;-72
2023/11/28 10:04:21;;;;;;;5.35;4.40;;;0.70;99.90;;;;;;494102;241;27511;-72
2023/11/28 10:06:19;;;;;;;4.50;3.97;;;0.70;99.90;;;;;;493855;241;27509;-73
2023/11/28 10:08:21;;;;;;;4.10;3.80;;;0.70;99.90;;;;;;494075;241;27470;-72
2023/11/28 10:10:22;;;;;;;3.30;3.08;;;0.70;99.90;;;;;;494029;241;27513;-72
2023/11/28 10:12:23;;;;;;;3.80;3.50;;;0.70;99.90;;;;;;494066;241;27571;-72
2023/11/28 10:14:24;;;;;;;3.60;3.35;;;0.60;99.90;;;;;;494108;241;27490;-72
2023/11/28 10:16:26;;;;;;;4.40;3.95;;;0.70;99.90;;;;;;494106;241;27530;-73
2023/11/28 10:18:27;;;;;;;3.35;3.15;;;0.70;99.90;;;;;;494101;241;27563;-72
2023/11/28 10:20:28;;;;;;;3.85;3.55;;;0.70;99.90;;;;;;494071;241;27548;-72
2023/11/28 10:22:29;;;;;;;4.00;3.70;;;0.70;99.90;;;;;;493989;241;28759;-72
2023/11/28 10:24:31;;;;;;;4.40;4.05;;;0.80;99.90;;;;;;493992;241;27990;-72
2023/11/28 10:26:32;;;;;;;4.30;3.90;;;0.80;99.90;;;;;;493987;241;28141;-72
2023/11/28 10:28:33;;;;;;;3.75;3.47;;;0.80;99.90;;;;;;494081;241;28053;-72
2023/11/28 10:30:34;;;;;;;4.00;3.55;;;0.80;99.90;;;;;;494073;241;27514;-73
2023/11/28 10:32:37;;;;;;;4.25;3.85;;;0.80;99.90;;;;;;494007;241;27625;-73
2023/11/28 10:34:37;;;;;;;3.92;3.62;;;0.80;99.90;;;;;;493943;241;27465;-73
2023/11/28 10:36:38;;;;;;;5.03;4.62;;;0.80;99.90;;;;;;494100;237;27584;-72
2023/11/28 10:38:39;;;;;;;4.10;3.80;;;0.80;99.90;;;;;;493986;241;27479;-72
2023/11/28 10:40:41;;;;;;;4.15;3.75;;;0.80;99.90;;;;;;493980;241;27527;-72